Terminal Aerodrome Forecast
Issued by NWS Tampa Bay Area, FL

Home | Current Version | Previous Version | Text Only | Print | Product List | Glossary On
Versions: 1 2 3 4 5 6 7 8 9 10 11 12
593
FTUS42 KTBW 120540
TAFSRQ
TAF
KSRQ 120540Z 1206/1306 VRB03KT 5SM BR SKC
      TEMPO 1206/1210 2SM BR
     FM121400 20006KT P6SM SKC
     FM121800 25010KT P6SM SKC
     FM130000 24004KT P6SM SKC=

USA.gov is the U.S. government's official web portal to all federal, state and local government web resources and services.